Time;durP1;ratioP1;P1;durP2;ratioP2;P2;SDS_P1;SDS_P2;PMS_P1;PMS_P2;Temp;Humidity;BMP_temperature;BMP_pressure;BME280_temperature;BME280_humidity;BME280_pressure;Samples;Min_cycle;Max_cycle;Signal;HPM_P1;HPM_P2
2021/06/17 00:01:48;;;;;;;1.00;0.30;;;;;;;-148.58;100.00;55229.56;5014343;28;20412;-57
2021/06/17 00:04:13;;;;;;;0.88;0.40;;;;;;;-148.58;100.00;55229.56;4999688;28;20482;-57
2021/06/17 00:06:38;;;;;;;0.77;0.40;;;;;;;-148.58;100.00;55229.56;4997880;28;20057;-57
2021/06/17 00:09:13;;;;;;;1.00;0.43;;;;;;;-148.58;100.00;55229.56;5015486;28;20034;-57
2021/06/17 00:11:38;;;;;;;;;;;;;;;-148.58;100.00;55229.56;5013539;28;20022;-57
2021/06/17 00:14:04;;;;;;;0.80;0.50;;;;;;;-148.58;100.00;55229.56;5001114;28;19909;-57
2021/06/17 00:16:29;;;;;;;0.70;0.43;;;;;;;-148.58;100.00;55229.56;4994858;28;20030;-57
2021/06/17 00:18:54;;;;;;;0.50;0.47;;;;;;;-148.58;100.00;55229.56;4994521;28;20033;-57
2021/06/17 00:21:20;;;;;;;0.60;0.47;;;;;;;-148.58;100.00;55229.56;4994677;28;20448;-56
2021/06/17 00:23:45;;;;;;;0.82;0.47;;;;;;;-148.58;100.00;55229.56;5004692;28;20036;-57
2021/06/17 00:26:10;;;;;;;0.45;0.38;;;;;;;-148.58;100.00;55229.56;5013796;28;20038;-57
2021/06/17 00:28:36;;;;;;;0.28;0.28;;;;;;;-148.58;100.00;55229.56;5014113;28;20512;-57
2021/06/17 00:31:02;;;;;;;1.10;0.40;;;;;;;-148.58;100.00;55229.56;5013945;28;20022;-56
2021/06/17 00:33:28;;;;;;;1.77;0.50;;;;;;;-148.58;100.00;55229.56;5015044;28;20045;-56
2021/06/17 00:35:54;;;;;;;1.30;0.35;;;;;;;-148.58;100.00;55229.56;5014996;28;20072;-57
2021/06/17 00:38:19;;;;;;;1.55;0.47;;;;;;;-148.58;100.00;55229.56;5013443;28;20030;-56
2021/06/17 00:40:45;;;;;;;0.35;0.32;;;;;;;-148.58;100.00;55229.56;5013612;28;20357;-57
2021/06/17 00:43:11;;;;;;;0.75;0.50;;;;;;;-148.58;100.00;55229.56;5008454;28;20170;-57
2021/06/17 00:45:43;;;;;;;0.70;0.30;;;;;;;-148.58;100.00;55229.56;4995199;28;20030;-56
2021/06/17 00:48:10;;;;;;;1.10;0.60;;;;;;;-148.58;100.00;55229.56;5013416;28;20033;-56
2021/06/17 00:50:39;;;;;;;1.58;0.88;;;;;;;-148.58;100.00;55229.56;5013777;28;20030;-57
2021/06/17 00:53:13;;;;;;;0.88;0.40;;;;;;;-148.58;100.00;55229.56;5009104;28;20019;-56
2021/06/17 00:55:40;;;;;;;0.40;0.40;;;;;;;-148.58;100.00;55229.56;4994302;28;20030;-58
2021/06/17 00:58:06;;;;;;;1.85;0.50;;;;;;;-148.58;100.00;55229.56;5010658;28;20034;-57
2021/06/17 01:00:32;;;;;;;0.52;0.30;;;;;;;-148.58;100.00;55229.56;5013621;28;20420;-57
2021/06/17 01:02:57;;;;;;;0.70;0.50;;;;;;;-148.58;100.00;55229.56;5010135;28;20026;-56
2021/06/17 01:05:25;;;;;;;0.47;0.40;;;;;;;-148.58;100.00;55229.56;4993800;28;20049;-57
2021/06/17 01:07:57;;;;;;;0.68;0.30;;;;;;;-148.58;100.00;55229.56;4993573;28;20026;-56
2021/06/17 01:10:22;;;;;;;0.60;0.60;;;;;;;-148.58;100.00;55229.56;4993920;28;20023;-56
2021/06/17 01:13:02;;;;;;;1.38;0.43;;;;;;;-148.58;100.00;55229.56;5009712;28;20384;-57
2021/06/17 01:15:30;;;;;;;0.40;0.30;;;;;;;-148.58;100.00;55229.56;5007033;28;20030;-56
2021/06/17 01:18:04;;;;;;;0.63;0.28;;;;;;;-148.58;100.00;55229.56;5011801;28;20277;-56
2021/06/17 01:20:42;;;;;;;0.60;0.30;;;;;;;-148.58;100.00;55229.56;5013284;28;20400;-57
2021/06/17 01:23:38;;;;;;;0.57;0.47;;;;;;;-148.58;100.00;55229.56;5008966;28;20057;-56
2021/06/17 01:26:25;;;;;;;0.70;0.40;;;;;;;-148.58;100.00;55229.56;4993429;28;20069;-57
2021/06/17 01:28:52;;;;;;;0.80;0.47;;;;;;;-148.58;100.00;55229.56;4993326;28;20494;-57
2021/06/17 01:31:24;;;;;;;0.60;0.43;;;;;;;-148.58;100.00;55229.56;4993566;28;20057;-57
2021/06/17 01:33:51;;;;;;;0.70;0.40;;;;;;;-148.58;100.00;55229.56;5002657;28;20030;-57
2021/06/17 01:36:35;;;;;;;0.50;0.45;;;;;;;-148.58;100.00;55229.56;5012876;28;20029;-57
2021/06/17 01:39:04;;;;;;;1.13;0.35;;;;;;;-148.58;100.00;55229.56;5013153;28;20029;-56
2021/06/17 01:41:32;;;;;;;0.60;0.30;;;;;;;-148.58;100.00;55229.56;4995164;28;20465;-57
2021/06/17 01:44:01;;;;;;;0.85;0.50;;;;;;;-148.58;100.00;55229.56;5001909;28;20037;-56
2021/06/17 01:46:27;;;;;;;0.98;0.50;;;;;;;-148.58;100.00;55229.56;4993354;28;20030;-57
2021/06/17 01:48:55;;;;;;;0.50;0.30;;;;;;;-148.58;100.00;55229.56;4993383;28;20101;-56
2021/06/17 01:51:22;;;;;;;1.27;0.55;;;;;;;-148.58;100.00;55229.56;4997317;28;20026;-56
2021/06/17 01:53:49;;;;;;;0.73;0.30;;;;;;;-148.58;100.00;55229.56;5012660;28;20026;-57
2021/06/17 01:56:18;;;;;;;0.65;0.50;;;;;;;-148.58;100.00;55229.56;5012694;28;20033;-57
2021/06/17 01:58:45;;;;;;;0.65;0.20;;;;;;;-148.58;100.00;55229.56;5012655;28;20108;-57
2021/06/17 02:01:11;;;;;;;0.85;0.45;;;;;;;-148.58;100.00;55229.56;5009657;28;20370;-57
2021/06/17 02:03:37;;;;;;;0.52;0.32;;;;;;;-148.58;100.00;55229.56;4993008;28;20469;-56
2021/06/17 02:06:03;;;;;;;0.75;0.35;;;;;;;-148.58;100.00;55229.56;4992882;28;20085;-56
2021/06/17 02:08:28;;;;;;;0.80;0.43;;;;;;;-148.58;100.00;55229.56;4993160;28;20050;-57
2021/06/17 02:10:54;;;;;;;0.60;0.40;;;;;;;-148.58;100.00;55229.56;4992885;28;20424;-57
2021/06/17 02:13:20;;;;;;;0.82;0.38;;;;;;;-148.58;100.00;55229.56;4995102;28;20056;-57
2021/06/17 02:15:48;;;;;;;0.57;0.28;;;;;;;-148.58;100.00;55229.56;5012218;28;20508;-56
2021/06/17 02:18:22;;;;;;;1.30;0.30;;;;;;;-148.58;100.00;55229.56;5011936;28;20026;-57
2021/06/17 02:20:48;;;;;;;0.38;0.30;;;;;;;-148.58;100.00;55229.56;5012398;28;20022;-57
2021/06/17 02:23:15;;;;;;;0.90;0.52;;;;;;;-148.58;100.00;55229.56;4993542;28;20030;-57
2021/06/17 02:25:42;;;;;;;0.43;0.32;;;;;;;-148.58;100.00;55229.56;4992828;28;20034;-57
2021/06/17 02:28:15;;;;;;;0.30;0.20;;;;;;;-148.58;100.00;55229.56;4992915;28;20050;-56
2021/06/17 02:30:43;;;;;;;0.63;0.40;;;;;;;-148.58;100.00;55229.56;4992852;28;20019;-57
2021/06/17 02:33:11;;;;;;;1.10;0.57;;;;;;;-148.58;100.00;55229.56;5008422;28;20034;-56
2021/06/17 02:35:42;;;;;;;0.40;0.28;;;;;;;-148.58;100.00;55229.56;4992873;28;20019;-57
2021/06/17 02:38:09;;;;;;;0.60;0.32;;;;;;;-148.58;100.00;55229.56;4992792;28;20022;-57
2021/06/17 02:40:41;;;;;;;0.35;0.30;;;;;;;-148.58;100.00;55229.56;4975226;28;20027;-56
2021/06/17 02:43:12;;;;;;;1.00;0.43;;;;;;;-148.58;100.00;55229.56;5009996;28;20026;-57
2021/06/17 02:45:39;;;;;;;0.50;0.50;;;;;;;-148.58;100.00;55229.56;5012333;28;20178;-57
2021/06/17 02:48:06;;;;;;;0.98;0.40;;;;;;;-148.58;100.00;55229.56;5012478;28;20060;-57
2021/06/17 02:50:31;;;;;;;0.30;0.30;;;;;;;-148.58;100.00;55229.56;5016101;28;20034;-57
2021/06/17 02:52:56;;;;;;;0.45;0.40;;;;;;;-148.58;100.00;55229.56;4999566;28;20040;-57
2021/06/17 02:55:21;;;;;;;0.25;0.20;;;;;;;-148.58;100.00;55229.56;4996266;28;20040;-57
2021/06/17 02:58:20;;;;;;;0.40;0.32;;;;;;;-148.58;100.00;55229.56;5010062;28;20053;-56
2021/06/17 03:00:55;;;;;;;0.38;0.30;;;;;;;-148.58;100.00;55229.56;5015498;28;20475;-57
2021/06/17 03:03:35;;;;;;;;;;;;;;;-148.58;100.00;55229.56;4997107;28;20049;-57
2021/06/17 03:06:49;;;;;;;0.63;0.40;;;;;;;-148.58;100.00;55229.56;4995813;28;20408;-57
2021/06/17 03:09:19;;;;;;;1.33;0.60;;;;;;;-148.58;100.00;55229.56;4996031;28;20030;-57
2021/06/17 03:11:47;;;;;;;0.35;0.30;;;;;;;-148.58;100.00;55229.56;5001233;28;20484;-57
2021/06/17 03:14:21;;;;;;;0.50;0.30;;;;;;;-148.58;100.00;55229.56;5015576;28;20483;-56
2021/06/17 03:16:52;;;;;;;0.50;0.40;;;;;;;-148.58;100.00;55229.56;5015123;28;20041;-57
2021/06/17 03:19:19;;;;;;;0.80;0.30;;;;;;;-148.58;100.00;55229.56;5015461;28;20041;-57
2021/06/17 03:21:50;;;;;;;0.70;0.30;;;;;;;-148.58;100.00;55229.56;5009422;28;20014;-56
2021/06/17 03:24:20;;;;;;;0.32;0.30;;;;;;;-148.58;100.00;55229.56;4978401;28;20026;-56
2021/06/17 03:26:46;;;;;;;0.85;0.20;;;;;;;-148.58;100.00;55229.56;4995525;28;20049;-56
2021/06/17 03:29:16;;;;;;;0.47;0.35;;;;;;;-148.58;100.00;55229.56;4995679;28;20030;-56
2021/06/17 03:31:42;;;;;;;0.52;0.30;;;;;;;-148.58;100.00;55229.56;5000133;28;20097;-56
2021/06/17 03:34:09;;;;;;;1.38;0.40;;;;;;;-148.58;100.00;55229.56;5015125;28;20450;-56
2021/06/17 03:36:36;;;;;;;1.33;0.40;;;;;;;-148.58;100.00;55229.56;5014676;28;20036;-57
2021/06/17 03:39:04;;;;;;;0.30;0.20;;;;;;;-148.58;100.00;55229.56;5014189;28;20032;-56
2021/06/17 03:41:30;;;;;;;1.00;0.22;;;;;;;-148.58;100.00;55229.56;5011905;28;20029;-57
2021/06/17 03:43:56;;;;;;;1.05;0.40;;;;;;;-148.58;100.00;55229.56;4995190;28;20030;-57
2021/06/17 03:46:22;;;;;;;0.30;0.20;;;;;;;-148.58;100.00;55229.56;4995294;28;20034;-56
2021/06/17 03:48:48;;;;;;;0.35;0.17;;;;;;;-148.58;100.00;55229.56;4995150;28;20125;-57
2021/06/17 03:51:15;;;;;;;0.40;0.20;;;;;;;-148.58;100.00;55229.56;4995641;28;20421;-57
2021/06/17 03:53:43;;;;;;;0.57;0.43;;;;;;;-148.58;100.00;55229.56;5014963;28;20026;-57
2021/06/17 03:56:11;;;;;;;0.30;0.20;;;;;;;-148.58;100.00;55229.56;5014625;28;20030;-56
2021/06/17 03:58:37;;;;;;;0.20;0.10;;;;;;;-148.58;100.00;55229.56;5014584;28;20041;-57
2021/06/17 04:01:06;;;;;;;0.20;0.10;;;;;;;-148.58;100.00;55229.56;5013900;28;20037;-56
2021/06/17 04:03:32;;;;;;;0.40;0.25;;;;;;;-148.58;100.00;55229.56;4995538;28;20038;-57
2021/06/17 04:05:59;;;;;;;0.28;0.20;;;;;;;-148.58;100.00;55229.56;4994726;28;20034;-57
2021/06/17 04:08:31;;;;;;;0.63;0.10;;;;;;;-148.58;100.00;55229.56;4994884;28;20109;-56
2021/06/17 04:10:59;;;;;;;0.90;0.30;;;;;;;-148.58;100.00;55229.56;4994780;28;20022;-57
2021/06/17 04:13:28;;;;;;;0.40;0.20;;;;;;;-148.58;100.00;55229.56;5012462;28;20041;-56
2021/06/17 04:15:55;;;;;;;0.30;0.30;;;;;;;-148.58;100.00;55229.56;5014130;28;20380;-56
2021/06/17 04:18:24;;;;;;;0.57;0.30;;;;;;;-148.58;100.00;55229.56;5014157;28;20022;-57
2021/06/17 04:20:50;;;;;;;0.38;0.30;;;;;;;-148.58;100.00;55229.56;5014089;28;20034;-57
2021/06/17 04:23:19;;;;;;;0.35;0.08;;;;;;;-148.58;100.00;55229.56;4997650;28;20053;-56
2021/06/17 04:25:46;;;;;;;0.82;0.10;;;;;;;-148.58;100.00;55229.56;4994703;28;20031;-56
2021/06/17 04:28:11;;;;;;;0.40;0.10;;;;;;;-148.58;100.00;55229.56;4994581;28;20104;-57
2021/06/17 04:30:39;;;;;;;0.45;0.10;;;;;;;-148.58;100.00;55229.56;4994353;28;20053;-56
2021/06/17 04:33:06;;;;;;;0.30;0.10;;;;;;;-148.58;100.00;55229.56;5008884;28;20032;-57
2021/06/17 04:35:37;;;;;;;0.30;0.00;;;;;;;-148.58;100.00;55229.56;5013839;28;20053;-57
2021/06/17 04:38:03;;;;;;;0.10;0.10;;;;;;;-148.58;100.00;55229.56;5013155;28;20432;-56
2021/06/17 04:40:28;;;;;;;0.10;0.10;;;;;;;-148.58;100.00;55229.56;5013925;28;20025;-56
2021/06/17 04:42:57;;;;;;;0.08;0.05;;;;;;;-148.58;100.00;55229.56;5012899;28;20117;-56
2021/06/17 04:45:27;;;;;;;0.52;0.10;;;;;;;-148.58;100.00;55229.56;5012996;28;20025;-57
2021/06/17 04:47:54;;;;;;;0.75;0.10;;;;;;;-148.58;100.00;55229.56;5013615;28;20369;-57
2021/06/17 04:50:22;;;;;;;0.50;0.10;;;;;;;-148.58;100.00;55229.56;5014344;28;20361;-56
2021/06/17 04:52:50;;;;;;;0.77;0.20;;;;;;;-148.58;100.00;55229.56;5013268;28;20376;-57
2021/06/17 04:55:16;;;;;;;0.20;0.03;;;;;;;-148.58;100.00;55229.56;5013737;28;20030;-56
2021/06/17 04:57:42;;;;;;;0.73;0.10;;;;;;;-148.58;100.00;55229.56;5013352;28;20026;-57
2021/06/17 05:00:08;;;;;;;0.43;0.10;;;;;;;-148.58;100.00;55229.56;5013511;28;20367;-57
2021/06/17 05:02:33;;;;;;;0.52;0.10;;;;;;;-148.58;100.00;55229.56;5003609;28;20469;-57
2021/06/17 05:04:58;;;;;;;0.75;0.10;;;;;;;-148.58;100.00;55229.56;4993537;28;20061;-58
2021/06/17 05:12:41;;;;;;;0.20;0.00;;;;;;;-148.58;100.00;55229.56;5003957;28;20100;-56
2021/06/17 05:15:07;;;;;;;0.70;0.10;;;;;;;-148.58;100.00;55229.56;5013823;28;20026;-57
2021/06/17 05:17:32;;;;;;;0.10;0.10;;;;;;;-148.58;100.00;55229.56;5013171;28;20487;-57
2021/06/17 05:19:58;;;;;;;0.20;0.10;;;;;;;-148.58;100.00;55229.56;5012975;28;20026;-57
2021/06/17 05:22:24;;;;;;;0.47;0.22;;;;;;;-148.58;100.00;55229.56;5005036;28;20030;-57
2021/06/17 05:24:49;;;;;;;0.45;0.10;;;;;;;-148.58;100.00;55229.56;4993312;28;20026;-57
2021/06/17 05:27:14;;;;;;;0.15;0.03;;;;;;;-148.58;100.00;55229.56;4993539;28;20136;-57
2021/06/17 05:29:40;;;;;;;0.22;0.10;;;;;;;-148.58;100.00;55229.56;4975913;28;20022;-56
2021/06/17 05:32:05;;;;;;;0.17;0.00;;;;;;;-148.58;100.00;55229.56;5003406;28;20501;-57
2021/06/17 05:34:31;;;;;;;0.57;0.20;;;;;;;-148.58;100.00;55229.56;4986321;28;20036;-56
2021/06/17 05:36:56;;;;;;;0.75;0.00;;;;;;;-148.58;100.00;55229.56;5012879;28;20038;-57
2021/06/17 05:39:21;;;;;;;1.05;0.20;;;;;;;-148.58;100.00;55229.56;5012938;28;20492;-57
2021/06/17 05:41:47;;;;;;;0.55;0.00;;;;;;;-148.58;100.00;55229.56;5009771;28;20025;-56
2021/06/17 05:44:12;;;;;;;1.02;0.20;;;;;;;-148.58;100.00;55229.56;4998222;28;20069;-57
2021/06/17 05:46:40;;;;;;;0.28;0.00;;;;;;;-148.58;100.00;55229.56;5012845;28;20381;-56
2021/06/17 05:49:06;;;;;;;0.40;0.10;;;;;;;-148.58;100.00;55229.56;5012822;28;20022;-57
2021/06/17 05:51:31;;;;;;;0.20;0.00;;;;;;;-148.58;100.00;55229.56;5012563;28;20483;-57
2021/06/17 05:53:56;;;;;;;0.40;0.00;;;;;;;-148.58;100.00;55229.56;4992948;28;20058;-57
2021/06/17 05:56:22;;;;;;;0.80;0.10;;;;;;;-148.58;100.00;55229.56;4995597;28;20022;-58
2021/06/17 05:58:47;;;;;;;0.30;0.10;;;;;;;-148.58;100.00;55229.56;5012586;28;20026;-57
2021/06/17 06:01:13;;;;;;;0.65;0.00;;;;;;;-148.58;100.00;55229.56;5012552;28;20061;-57
2021/06/17 06:03:38;;;;;;;0.00;0.00;;;;;;;-148.58;100.00;55229.56;4995335;28;20030;-56
2021/06/17 06:06:03;;;;;;;0.45;0.08;;;;;;;-148.58;100.00;55229.56;4992847;28;20337;-57
2021/06/17 06:08:29;;;;;;;0.10;0.00;;;;;;;-148.58;100.00;55229.56;4993047;28;20018;-56
2021/06/17 06:10:54;;;;;;;0.17;0.10;;;;;;;-148.58;100.00;55229.56;4992900;28;20484;-57
2021/06/17 06:13:19;;;;;;;0.20;0.00;;;;;;;-148.58;100.00;55229.56;5007141;28;20030;-57
2021/06/17 06:15:45;;;;;;;0.52;0.10;;;;;;;-148.58;100.00;55229.56;5012652;28;20049;-56
2021/06/17 06:18:13;;;;;;;0.40;0.15;;;;;;;-148.58;100.00;55229.56;5012044;28;20036;-57
2021/06/17 06:20:41;;;;;;;0.45;0.10;;;;;;;-148.58;100.00;55229.56;5012122;28;20083;-56
2021/06/17 06:23:06;;;;;;;0.10;0.00;;;;;;;-148.58;100.00;55229.56;5000283;28;20038;-57
2021/06/17 06:25:32;;;;;;;0.47;0.10;;;;;;;-148.58;100.00;55229.56;5001314;28;20038;-56
2021/06/17 06:27:58;;;;;;;0.60;0.10;;;;;;;-148.58;100.00;55229.56;5022113;28;20040;-57
2021/06/17 06:30:24;;;;;;;0.15;0.05;;;;;;;-148.58;100.00;55229.56;5016173;28;20018;-56
2021/06/17 06:32:49;;;;;;;0.55;0.10;;;;;;;-148.58;100.00;55229.56;5011316;28;20072;-56
2021/06/17 06:35:14;;;;;;;0.30;0.10;;;;;;;-148.58;100.00;55229.56;5011299;28;20049;-56
2021/06/17 06:37:40;;;;;;;0.40;0.10;;;;;;;-148.58;100.00;55229.56;5005929;28;20025;-56
2021/06/17 06:40:06;;;;;;;0.88;0.10;;;;;;;-148.58;100.00;55229.56;5014514;28;20103;-57
2021/06/17 06:42:32;;;;;;;0.10;0.10;;;;;;;-148.58;100.00;55229.56;5013985;28;20235;-56
2021/06/17 06:44:57;;;;;;;0.20;0.10;;;;;;;-148.58;100.00;55229.56;5014563;28;20477;-57
2021/06/17 06:47:23;;;;;;;0.45;0.10;;;;;;;-148.58;100.00;55229.56;5014691;28;20022;-56
2021/06/17 06:49:48;;;;;;;0.10;0.00;;;;;;;-148.58;100.00;55229.56;5014116;28;20022;-57
2021/06/17 06:52:13;;;;;;;0.50;0.10;;;;;;;-148.58;100.00;55229.56;5013149;28;20026;-57
2021/06/17 06:54:39;;;;;;;0.10;0.00;;;;;;;-148.58;100.00;55229.56;5012666;28;20056;-56
2021/06/17 06:57:04;;;;;;;1.27;0.10;;;;;;;-148.58;100.00;55229.56;5014488;28;20021;-57
2021/06/17 06:59:30;;;;;;;0.10;0.00;;;;;;;-148.58;100.00;55229.56;5014742;28;20060;-57
2021/06/17 07:01:56;;;;;;;0.43;0.00;;;;;;;-148.58;100.00;55229.56;5009257;28;20032;-57
2021/06/17 07:04:21;;;;;;;0.10;0.10;;;;;;;-148.58;100.00;55229.56;5013809;28;20050;-58
2021/06/17 07:06:47;;;;;;;1.27;0.05;;;;;;;-148.58;100.00;55229.56;5011826;28;20560;-58
2021/06/17 07:09:13;;;;;;;0.75;0.08;;;;;;;-148.58;100.00;55229.56;5012366;28;20113;-57
2021/06/17 07:11:41;;;;;;;0.40;0.20;;;;;;;-148.58;100.00;55229.56;5012984;28;20030;-57
2021/06/17 07:14:07;;;;;;;0.10;0.10;;;;;;;-148.58;100.00;55229.56;5009806;28;20432;-57
2021/06/17 07:16:33;;;;;;;0.32;0.20;;;;;;;-148.58;100.00;55229.56;5008144;28;20029;-58
2021/06/17 07:18:59;;;;;;;0.20;0.10;;;;;;;-148.58;100.00;55229.56;5013414;28;20130;-57
2021/06/17 07:21:24;;;;;;;0.00;0.00;;;;;;;-148.58;100.00;55229.56;5013567;28;20080;-57
2021/06/17 07:23:50;;;;;;;1.17;0.32;;;;;;;-148.58;100.00;55229.56;5013788;28;20034;-57
2021/06/17 07:26:20;;;;;;;0.00;0.00;;;;;;;-148.58;100.00;55229.56;5013435;28;20040;-57
2021/06/17 07:28:45;;;;;;;0.10;0.05;;;;;;;-148.58;100.00;55229.56;5011467;28;20049;-57
2021/06/17 07:31:10;;;;;;;0.40;0.08;;;;;;;-148.58;100.00;55229.56;5012626;28;20057;-57
2021/06/17 07:33:36;;;;;;;1.33;0.10;;;;;;;-148.58;100.00;55229.56;5010595;28;20575;-59
2021/06/17 07:36:01;;;;;;;0.47;0.10;;;;;;;-148.58;100.00;55229.56;5009382;28;20054;-58
2021/06/17 07:38:26;;;;;;;0.30;0.05;;;;;;;-148.58;100.00;55229.56;5010663;28;20116;-59
2021/06/17 07:40:52;;;;;;;0.85;0.10;;;;;;;-148.58;100.00;55229.56;5012546;28;20457;-58
2021/06/17 07:43:17;;;;;;;1.67;0.22;;;;;;;-148.58;100.00;55229.56;5009770;28;20022;-58
2021/06/17 07:45:42;;;;;;;0.43;0.10;;;;;;;-148.58;100.00;55229.56;5009625;28;20061;-58
2021/06/17 07:48:11;;;;;;;0.32;0.13;;;;;;;-148.58;100.00;55229.56;5012147;28;20084;-58
2021/06/17 07:50:38;;;;;;;0.03;0.00;;;;;;;-148.58;100.00;55229.56;5009196;28;20029;-60
2021/06/17 07:53:03;;;;;;;0.20;0.00;;;;;;;-148.58;100.00;55229.56;5013066;28;20446;-58
2021/06/17 07:55:28;;;;;;;1.00;0.10;;;;;;;-148.58;100.00;55229.56;5013942;28;20034;-58
2021/06/17 07:57:54;;;;;;;1.05;0.10;;;;;;;-148.58;100.00;55229.56;5012989;28;20014;-57
2021/06/17 08:00:19;;;;;;;0.85;0.10;;;;;;;-148.58;100.00;55229.56;5013411;28;20361;-58
2021/06/17 08:02:44;;;;;;;0.55;0.10;;;;;;;-148.58;100.00;55229.56;5011578;28;20025;-58
2021/06/17 08:05:10;;;;;;;0.20;0.10;;;;;;;-148.58;100.00;55229.56;5009553;28;20455;-58
2021/06/17 08:07:37;;;;;;;0.47;0.00;;;;;;;-148.58;100.00;55229.56;5016850;28;20361;-58
2021/06/17 08:10:06;;;;;;;0.68;0.20;;;;;;;-148.58;100.00;55229.56;5013894;28;20022;-58
2021/06/17 08:12:32;;;;;;;0.08;0.08;;;;;;;-148.58;100.00;55229.56;5012068;28;20047;-59
2021/06/17 08:14:57;;;;;;;0.05;0.00;;;;;;;-148.58;100.00;55229.56;5018963;28;20451;-58
2021/06/17 08:17:22;;;;;;;0.13;0.10;;;;;;;-148.58;100.00;55229.56;5014655;28;20488;-58
2021/06/17 08:19:48;;;;;;;0.88;0.00;;;;;;;-148.58;100.00;55229.56;5011236;28;20481;-58
2021/06/17 08:22:13;;;;;;;0.10;0.00;;;;;;;-148.58;100.00;55229.56;5012505;28;20025;-58
2021/06/17 08:24:40;;;;;;;0.38;0.10;;;;;;;-148.58;100.00;55229.56;5012516;28;20381;-58
2021/06/17 08:27:06;;;;;;;0.30;0.10;;;;;;;-148.58;100.00;55229.56;5010906;28;20079;-57
2021/06/17 08:29:32;;;;;;;0.45;0.00;;;;;;;-148.58;100.00;55229.56;5010759;28;20036;-57
2021/06/17 08:31:58;;;;;;;0.88;0.10;;;;;;;-148.58;100.00;55229.56;5012088;28;20021;-57
2021/06/17 08:34:26;;;;;;;0.10;0.00;;;;;;;-148.58;100.00;55229.56;5011040;28;20018;-57
2021/06/17 08:36:52;;;;;;;0.55;0.10;;;;;;;-148.58;100.00;55229.56;5008339;28;20052;-58
2021/06/17 08:39:18;;;;;;;0.20;0.10;;;;;;;-148.58;100.00;55229.56;5015554;28;20502;-57
2021/06/17 08:41:45;;;;;;;0.40;0.10;;;;;;;-148.58;100.00;55229.56;5009348;28;20370;-58
2021/06/17 08:44:10;;;;;;;0.10;0.10;;;;;;;-148.58;100.00;55229.56;5009267;28;20025;-57
2021/06/17 08:46:37;;;;;;;0.10;0.10;;;;;;;-148.58;100.00;55229.56;5010920;28;20029;-59
2021/06/17 08:49:03;;;;;;;1.10;0.10;;;;;;;-148.58;100.00;55229.56;5011108;28;20373;-59
2021/06/17 08:51:31;;;;;;;0.00;0.00;;;;;;;-148.58;100.00;55229.56;5011512;28;20029;-58
2021/06/17 08:53:57;;;;;;;0.40;0.10;;;;;;;-148.58;100.00;55229.56;5011292;28;20116;-58
2021/06/17 08:56:22;;;;;;;0.00;0.00;;;;;;;-148.58;100.00;55229.56;5011608;28;20121;-56
2021/06/17 08:58:49;;;;;;;0.10;0.08;;;;;;;-148.58;100.00;55229.56;5010285;28;20511;-57
2021/06/17 09:01:15;;;;;;;0.30;0.10;;;;;;;-148.58;100.00;55229.56;5011365;28;20029;-56
2021/06/17 09:03:43;;;;;;;0.10;0.00;;;;;;;-148.58;100.00;55229.56;5011297;28;20044;-57
2021/06/17 09:06:08;;;;;;;0.00;0.00;;;;;;;-148.58;100.00;55229.56;5010107;28;20022;-57
2021/06/17 09:08:34;;;;;;;0.35;0.00;;;;;;;-148.58;100.00;55229.56;5009840;28;20022;-57
2021/06/17 09:11:02;;;;;;;0.05;0.03;;;;;;;-148.58;100.00;55229.56;5011381;28;20032;-57
2021/06/17 09:13:30;;;;;;;0.38;0.10;;;;;;;-148.58;100.00;55229.56;5010986;28;20029;-57
2021/06/17 09:15:56;;;;;;;0.10;0.10;;;;;;;-148.58;100.00;55229.56;5007536;28;20029;-57
2021/06/17 09:18:25;;;;;;;0.20;0.10;;;;;;;-148.58;100.00;55229.56;5011184;28;20370;-58
2021/06/17 09:20:54;;;;;;;0.57;0.10;;;;;;;-148.58;100.00;55229.56;5007923;28;20026;-57
2021/06/17 09:23:27;;;;;;;0.10;0.00;;;;;;;-148.58;100.00;55229.56;5011865;28;20030;-57
2021/06/17 09:26:04;;;;;;;0.17;0.00;;;;;;;-148.58;100.00;55229.56;5011287;28;20047;-57
2021/06/17 09:28:45;;;;;;;0.00;0.00;;;;;;;-148.58;100.00;55229.56;5010364;28;20115;-57
2021/06/17 09:31:15;;;;;;;0.10;0.00;;;;;;;-148.58;100.00;55229.56;5010598;28;20064;-57
2021/06/17 09:33:45;;;;;;;0.30;0.00;;;;;;;-148.58;100.00;55229.56;4994381;28;20030;-56
2021/06/17 09:36:10;;;;;;;1.35;0.10;;;;;;;-148.58;100.00;55229.56;5009575;28;20041;-57
2021/06/17 09:38:47;;;;;;;0.70;0.17;;;;;;;-148.58;100.00;55229.56;5013308;28;20033;-57
2021/06/17 09:41:38;;;;;;;0.17;0.00;;;;;;;-148.58;100.00;55229.56;5004284;28;20499;-60
2021/06/17 09:44:23;;;;;;;0.43;0.10;;;;;;;-148.58;100.00;55229.56;5012966;28;20030;-59
2021/06/17 09:47:05;;;;;;;0.52;0.03;;;;;;;-148.58;100.00;55229.56;5012467;28;20033;-57
2021/06/17 09:49:31;;;;;;;1.65;0.10;;;;;;;-148.58;100.00;55229.56;5007863;28;20034;-59
2021/06/17 09:51:57;;;;;;;1.55;0.10;;;;;;;-148.58;100.00;55229.56;5012230;28;20042;-56
2021/06/17 09:54:26;;;;;;;0.63;0.08;;;;;;;-148.58;100.00;55229.56;5012071;28;20034;-56
2021/06/17 09:56:56;;;;;;;0.17;0.10;;;;;;;-148.58;100.00;55229.56;5010986;28;20228;-57
2021/06/17 09:59:47;;;;;;;0.50;0.10;;;;;;;-148.58;100.00;55229.56;5010138;28;20519;-56
2021/06/17 10:02:21;;;;;;;0.98;0.10;;;;;;;-148.58;100.00;55229.56;5007220;28;20037;-57
2021/06/17 10:04:47;;;;;;;0.30;0.20;;;;;;;-148.58;100.00;55229.56;5002434;28;20057;-57
2021/06/17 10:07:12;;;;;;;0.70;0.13;;;;;;;-148.58;100.00;55229.56;5012138;28;20435;-57
2021/06/17 10:09:38;;;;;;;0.28;0.10;;;;;;;-148.58;100.00;55229.56;5010849;28;20018;-57
2021/06/17 10:12:04;;;;;;;0.52;0.13;;;;;;;-148.58;100.00;55229.56;5007730;28;20153;-57
2021/06/17 10:14:31;;;;;;;1.13;0.08;;;;;;;-148.58;100.00;55229.56;4995024;28;20049;-57
2021/06/17 10:16:58;;;;;;;0.10;0.00;;;;;;;-148.58;100.00;55229.56;5011019;28;20052;-57
2021/06/17 10:19:24;;;;;;;0.10;0.00;;;;;;;-148.58;100.00;55229.56;5005801;28;20380;-57
2021/06/17 10:21:49;;;;;;;0.38;0.08;;;;;;;-148.58;100.00;55229.56;4993926;28;20429;-57
2021/06/17 10:24:20;;;;;;;0.43;0.10;;;;;;;-148.58;100.00;55229.56;5011437;28;20105;-57
2021/06/17 10:26:51;;;;;;;0.28;0.10;;;;;;;-148.58;100.00;55229.56;5009838;28;20178;-57
2021/06/17 10:29:23;;;;;;;0.10;0.00;;;;;;;-148.58;100.00;55229.56;4997901;28;20109;-57
2021/06/17 10:31:50;;;;;;;0.10;0.00;;;;;;;-148.58;100.00;55229.56;5011616;28;20080;-57
2021/06/17 10:34:31;;;;;;;0.00;0.00;;;;;;;-148.58;100.00;55229.56;5009131;28;20056;-58
2021/06/17 10:37:06;;;;;;;0.75;0.00;;;;;;;-148.58;100.00;55229.56;5012007;28;20026;-57
2021/06/17 10:39:37;;;;;;;0.28;0.00;;;;;;;-148.58;100.00;55229.56;5012512;28;20029;-57
2021/06/17 10:42:03;;;;;;;0.50;0.38;;;;;;;-148.58;100.00;55229.56;5006213;28;20459;-57
2021/06/17 10:44:56;;;;;;;0.00;0.00;;;;;;;-148.58;100.00;55229.56;5011983;28;20053;-57
2021/06/17 10:47:40;;;;;;;0.10;0.00;;;;;;;-148.58;100.00;55229.56;4992806;28;20175;-57
2021/06/17 10:50:21;;;;;;;0.10;0.03;;;;;;;-148.58;100.00;55229.56;5013403;28;20058;-57
2021/06/17 10:52:50;;;;;;;0.15;0.03;;;;;;;-148.58;100.00;55229.56;5011787;28;20399;-56
2021/06/17 10:55:17;;;;;;;0.00;0.00;;;;;;;-148.58;100.00;55229.56;5012554;28;20026;-57
2021/06/17 10:57:43;;;;;;;0.10;0.00;;;;;;;-148.58;100.00;55229.56;5012046;28;20022;-57
2021/06/17 11:00:25;;;;;;;0.47;0.10;;;;;;;-148.58;100.00;55229.56;5012212;28;20025;-57
2021/06/17 11:02:54;;;;;;;0.00;0.00;;;;;;;-148.58;100.00;55229.56;5011976;28;20118;-56
2021/06/17 11:05:29;;;;;;;0.20;0.20;;;;;;;-148.58;100.00;55229.56;5012015;28;20073;-57
2021/06/17 11:08:16;;;;;;;0.35;0.10;;;;;;;-148.58;100.00;55229.56;5011225;28;20025;-58
2021/06/17 11:10:45;;;;;;;0.10;0.00;;;;;;;-148.58;100.00;55229.56;5014192;28;20036;-57
2021/06/17 11:13:28;;;;;;;0.88;0.08;;;;;;;-148.58;100.00;55229.56;5015368;28;20492;-57
2021/06/17 11:15:57;;;;;;;0.25;0.00;;;;;;;-148.58;100.00;55229.56;5015138;28;20033;-57
2021/06/17 11:18:49;;;;;;;0.10;0.00;;;;;;;-148.58;100.00;55229.56;5010968;28;20030;-56
2021/06/17 11:21:23;;;;;;;0.10;0.00;;;;;;;-148.58;100.00;55229.56;5015417;28;20029;-57